sensor_id;sensor_type;location;lat;lon;timestamp;temperature;humidity
7902;DHT22;3996;49.674;10.716;2023-11-18T00:00:27;3.80;42.70
7902;DHT22;3996;49.674;10.716;2023-11-18T00:02:53;3.70;42.00
7902;DHT22;3996;49.674;10.716;2023-11-18T00:05:19;3.60;42.30
7902;DHT22;3996;49.674;10.716;2023-11-18T00:07:44;3.60;42.60
7902;DHT22;3996;49.674;10.716;2023-11-18T00:10:10;3.70;42.40
7902;DHT22;3996;49.674;10.716;2023-11-18T00:12:37;3.70;42.10
7902;DHT22;3996;49.674;10.716;2023-11-18T00:15:05;3.70;41.70
7902;DHT22;3996;49.674;10.716;2023-11-18T00:17:33;3.60;41.60
7902;DHT22;3996;49.674;10.716;2023-11-18T00:19:59;3.60;41.30
7902;DHT22;3996;49.674;10.716;2023-11-18T00:22:25;3.60;40.30
7902;DHT22;3996;49.674;10.716;2023-11-18T00:24:53;3.60;41.30
7902;DHT22;3996;49.674;10.716;2023-11-18T00:27:20;3.60;40.70
7902;DHT22;3996;49.674;10.716;2023-11-18T00:29:48;3.60;41.30
7902;DHT22;3996;49.674;10.716;2023-11-18T00:32:14;3.50;39.70
7902;DHT22;3996;49.674;10.716;2023-11-18T00:34:39;3.40;40.30
7902;DHT22;3996;49.674;10.716;2023-11-18T00:37:05;3.40;40.60
7902;DHT22;3996;49.674;10.716;2023-11-18T00:39:30;3.30;40.40
7902;DHT22;3996;49.674;10.716;2023-11-18T00:41:56;3.30;40.80
7902;DHT22;3996;49.674;10.716;2023-11-18T00:44:22;3.30;40.20
7902;DHT22;3996;49.674;10.716;2023-11-18T00:46:47;3.40;40.50
7902;DHT22;3996;49.674;10.716;2023-11-18T00:49:13;3.30;40.10
7902;DHT22;3996;49.674;10.716;2023-11-18T00:51:39;3.30;40.60
7902;DHT22;3996;49.674;10.716;2023-11-18T00:54:04;3.20;39.90
7902;DHT22;3996;49.674;10.716;2023-11-18T00:56:33;3.30;40.00
7902;DHT22;3996;49.674;10.716;2023-11-18T00:58:59;3.30;40.50
7902;DHT22;3996;49.674;10.716;2023-11-18T01:01:26;3.30;40.40
7902;DHT22;3996;49.674;10.716;2023-11-18T01:03:52;3.30;39.30
7902;DHT22;3996;49.674;10.716;2023-11-18T01:06:19;3.30;39.30
7902;DHT22;3996;49.674;10.716;2023-11-18T01:08:45;3.30;38.80
7902;DHT22;3996;49.674;10.716;2023-11-18T01:11:16;3.10;39.40
7902;DHT22;3996;49.674;10.716;2023-11-18T01:13:47;3.20;39.70
7902;DHT22;3996;49.674;10.716;2023-11-18T01:16:13;3.10;40.10
7902;DHT22;3996;49.674;10.716;2023-11-18T01:18:40;2.90;40.10
7902;DHT22;3996;49.674;10.716;2023-11-18T01:21:06;3.00;40.50
7902;DHT22;3996;49.674;10.716;2023-11-18T01:23:37;2.90;40.70
7902;DHT22;3996;49.674;10.716;2023-11-18T01:26:04;3.00;40.30
7902;DHT22;3996;49.674;10.716;2023-11-18T01:28:36;3.00;41.00
7902;DHT22;3996;49.674;10.716;2023-11-18T01:31:03;3.10;41.00
7902;DHT22;3996;49.674;10.716;2023-11-18T01:33:30;3.10;40.70
7902;DHT22;3996;49.674;10.716;2023-11-18T01:35:55;3.00;39.80
7902;DHT22;3996;49.674;10.716;2023-11-18T01:38:21;3.00;39.80
7902;DHT22;3996;49.674;10.716;2023-11-18T01:40:47;2.90;40.80
7902;DHT22;3996;49.674;10.716;2023-11-18T01:43:12;2.90;40.40
7902;DHT22;3996;49.674;10.716;2023-11-18T01:45:40;3.00;39.80
7902;DHT22;3996;49.674;10.716;2023-11-18T01:48:07;2.90;39.70
7902;DHT22;3996;49.674;10.716;2023-11-18T01:50:38;2.90;39.50
7902;DHT22;3996;49.674;10.716;2023-11-18T01:53:05;2.80;39.60
7902;DHT22;3996;49.674;10.716;2023-11-18T01:55:33;2.80;39.90
7902;DHT22;3996;49.674;10.716;2023-11-18T01:58:00;2.70;40.10
7902;DHT22;3996;49.674;10.716;2023-11-18T02:00:31;2.60;39.40
7902;DHT22;3996;49.674;10.716;2023-11-18T02:02:59;2.60;40.40
7902;DHT22;3996;49.674;10.716;2023-11-18T02:05:25;2.60;40.30
7902;DHT22;3996;49.674;10.716;2023-11-18T02:07:51;2.50;39.90
7902;DHT22;3996;49.674;10.716;2023-11-18T02:10:17;2.60;39.70
7902;DHT22;3996;49.674;10.716;2023-11-18T02:13:10;2.70;39.50
7902;DHT22;3996;49.674;10.716;2023-11-18T02:15:39;2.70;40.10
7902;DHT22;3996;49.674;10.716;2023-11-18T02:18:06;2.80;39.10
7902;DHT22;3996;49.674;10.716;2023-11-18T02:20:35;2.50;39.70
7902;DHT22;3996;49.674;10.716;2023-11-18T02:23:02;2.50;40.40
7902;DHT22;3996;49.674;10.716;2023-11-18T02:25:29;2.40;39.60
7902;DHT22;3996;49.674;10.716;2023-11-18T02:27:58;2.40;40.70
7902;DHT22;3996;49.674;10.716;2023-11-18T02:30:24;2.10;40.10
7902;DHT22;3996;49.674;10.716;2023-11-18T02:33:27;2.10;41.50
7902;DHT22;3996;49.674;10.716;2023-11-18T02:36:00;2.30;40.50
7902;DHT22;3996;49.674;10.716;2023-11-18T02:38:31;2.40;40.10
7902;DHT22;3996;49.674;10.716;2023-11-18T02:41:06;2.40;39.90
7902;DHT22;3996;49.674;10.716;2023-11-18T02:43:35;2.40;39.80
7902;DHT22;3996;49.674;10.716;2023-11-18T02:46:04;2.40;39.80
7902;DHT22;3996;49.674;10.716;2023-11-18T02:48:32;2.40;40.20
7902;DHT22;3996;49.674;10.716;2023-11-18T02:50:58;2.40;39.30
7902;DHT22;3996;49.674;10.716;2023-11-18T02:53:24;2.30;38.40
7902;DHT22;3996;49.674;10.716;2023-11-18T02:55:50;2.30;38.60
7902;DHT22;3996;49.674;10.716;2023-11-18T02:58:18;2.30;38.60
7902;DHT22;3996;49.674;10.716;2023-11-18T03:00:43;2.20;39.70
7902;DHT22;3996;49.674;10.716;2023-11-18T03:03:10;2.20;39.10
7902;DHT22;3996;49.674;10.716;2023-11-18T03:05:36;2.30;38.90
7902;DHT22;3996;49.674;10.716;2023-11-18T03:08:02;2.30;38.70
7902;DHT22;3996;49.674;10.716;2023-11-18T03:10:32;1.90;40.10
7902;DHT22;3996;49.674;10.716;2023-11-18T03:13:00;1.90;41.20
7902;DHT22;3996;49.674;10.716;2023-11-18T03:15:26;1.90;41.10
7902;DHT22;3996;49.674;10.716;2023-11-18T03:17:52;2.00;40.60
7902;DHT22;3996;49.674;10.716;2023-11-18T03:20:19;2.00;39.20
7902;DHT22;3996;49.674;10.716;2023-11-18T03:22:49;1.90;39.30
7902;DHT22;3996;49.674;10.716;2023-11-18T03:25:16;1.80;39.90
7902;DHT22;3996;49.674;10.716;2023-11-18T03:27:42;1.90;40.20
7902;DHT22;3996;49.674;10.716;2023-11-18T03:30:08;2.00;39.20
7902;DHT22;3996;49.674;10.716;2023-11-18T03:32:35;2.10;38.90
7902;DHT22;3996;49.674;10.716;2023-11-18T03:35:06;2.00;38.90
7902;DHT22;3996;49.674;10.716;2023-11-18T03:37:38;2.00;38.50
7902;DHT22;3996;49.674;10.716;2023-11-18T03:40:06;2.00;38.90
7902;DHT22;3996;49.674;10.716;2023-11-18T03:42:31;1.90;38.40
7902;DHT22;3996;49.674;10.716;2023-11-18T03:44:57;1.70;40.10
7902;DHT22;3996;49.674;10.716;2023-11-18T03:47:22;1.70;41.00
7902;DHT22;3996;49.674;10.716;2023-11-18T03:49:51;1.80;40.20
7902;DHT22;3996;49.674;10.716;2023-11-18T03:52:16;1.80;39.60
7902;DHT22;3996;49.674;10.716;2023-11-18T03:54:42;1.80;39.10
7902;DHT22;3996;49.674;10.716;2023-11-18T03:57:07;1.60;39.90
7902;DHT22;3996;49.674;10.716;2023-11-18T03:59:33;1.60;40.60
7902;DHT22;3996;49.674;10.716;2023-11-18T04:01:59;1.70;40.40
7902;DHT22;3996;49.674;10.716;2023-11-18T04:04:24;1.60;40.30
7902;DHT22;3996;49.674;10.716;2023-11-18T04:06:50;1.50;40.90
7902;DHT22;3996;49.674;10.716;2023-11-18T04:09:15;1.40;41.30
7902;DHT22;3996;49.674;10.716;2023-11-18T04:11:41;1.10;42.40
7902;DHT22;3996;49.674;10.716;2023-11-18T04:14:10;1.10;44.50
7902;DHT22;3996;49.674;10.716;2023-11-18T04:16:36;1.30;43.70
7902;DHT22;3996;49.674;10.716;2023-11-18T04:19:03;1.40;42.70
7902;DHT22;3996;49.674;10.716;2023-11-18T04:21:29;1.30;41.70
7902;DHT22;3996;49.674;10.716;2023-11-18T04:23:55;1.10;41.60
7902;DHT22;3996;49.674;10.716;2023-11-18T04:26:20;1.00;42.90
7902;DHT22;3996;49.674;10.716;2023-11-18T04:28:46;1.10;43.40
7902;DHT22;3996;49.674;10.716;2023-11-18T04:31:12;1.20;42.60
7902;DHT22;3996;49.674;10.716;2023-11-18T04:33:37;1.40;41.80
7902;DHT22;3996;49.674;10.716;2023-11-18T04:36:06;1.00;42.60
7902;DHT22;3996;49.674;10.716;2023-11-18T04:38:35;1.00;43.10
7902;DHT22;3996;49.674;10.716;2023-11-18T04:41:01;1.10;43.10
7902;DHT22;3996;49.674;10.716;2023-11-18T04:43:29;1.30;43.40
7902;DHT22;3996;49.674;10.716;2023-11-18T04:45:55;1.30;41.60
7902;DHT22;3996;49.674;10.716;2023-11-18T04:48:21;1.00;42.90
7902;DHT22;3996;49.674;10.716;2023-11-18T04:50:47;0.90;42.70
7902;DHT22;3996;49.674;10.716;2023-11-18T04:53:12;0.90;45.00
7902;DHT22;3996;49.674;10.716;2023-11-18T04:55:38;1.10;43.50
7902;DHT22;3996;49.674;10.716;2023-11-18T04:58:04;1.00;43.30
7902;DHT22;3996;49.674;10.716;2023-11-18T05:00:32;1.00;43.40
7902;DHT22;3996;49.674;10.716;2023-11-18T05:02:58;1.00;44.40
7902;DHT22;3996;49.674;10.716;2023-11-18T05:05:23;1.00;43.60
7902;DHT22;3996;49.674;10.716;2023-11-18T05:07:49;1.00;44.40
7902;DHT22;3996;49.674;10.716;2023-11-18T05:10:15;0.90;45.10
7902;DHT22;3996;49.674;10.716;2023-11-18T05:12:40;0.90;45.10
7902;DHT22;3996;49.674;10.716;2023-11-18T05:15:09;0.80;45.10
7902;DHT22;3996;49.674;10.716;2023-11-18T05:17:38;0.80;45.80
7902;DHT22;3996;49.674;10.716;2023-11-18T05:20:05;0.80;46.30
7902;DHT22;3996;49.674;10.716;2023-11-18T05:22:34;0.90;46.30
7902;DHT22;3996;49.674;10.716;2023-11-18T05:25:00;0.90;44.60
7902;DHT22;3996;49.674;10.716;2023-11-18T05:27:26;0.90;46.00
7902;DHT22;3996;49.674;10.716;2023-11-18T05:29:52;1.10;45.10
7902;DHT22;3996;49.674;10.716;2023-11-18T05:32:21;1.00;44.70
7902;DHT22;3996;49.674;10.716;2023-11-18T05:34:51;1.00;43.90
7902;DHT22;3996;49.674;10.716;2023-11-18T05:37:19;0.90;44.40
7902;DHT22;3996;49.674;10.716;2023-11-18T05:39:45;0.80;46.40
7902;DHT22;3996;49.674;10.716;2023-11-18T05:42:11;1.00;46.10
7902;DHT22;3996;49.674;10.716;2023-11-18T05:44:38;1.10;45.70
7902;DHT22;3996;49.674;10.716;2023-11-18T05:47:05;1.20;46.30
7902;DHT22;3996;49.674;10.716;2023-11-18T05:49:35;1.30;46.10
7902;DHT22;3996;49.674;10.716;2023-11-18T05:52:01;1.20;45.70
7902;DHT22;3996;49.674;10.716;2023-11-18T05:54:26;1.30;46.20
7902;DHT22;3996;49.674;10.716;2023-11-18T05:56:53;1.30;46.40
7902;DHT22;3996;49.674;10.716;2023-11-18T05:59:19;1.40;46.10
7902;DHT22;3996;49.674;10.716;2023-11-18T06:01:45;1.30;45.30
7902;DHT22;3996;49.674;10.716;2023-11-18T06:04:13;1.10;47.70
7902;DHT22;3996;49.674;10.716;2023-11-18T06:06:38;1.30;48.50
7902;DHT22;3996;49.674;10.716;2023-11-18T06:09:04;1.40;48.20
7902;DHT22;3996;49.674;10.716;2023-11-18T06:11:40;1.40;48.00
7902;DHT22;3996;49.674;10.716;2023-11-18T06:14:06;1.40;47.80
7902;DHT22;3996;49.674;10.716;2023-11-18T06:16:33;1.40;47.70
7902;DHT22;3996;49.674;10.716;2023-11-18T06:19:01;1.50;47.60
7902;DHT22;3996;49.674;10.716;2023-11-18T06:21:31;1.50;47.90
7902;DHT22;3996;49.674;10.716;2023-11-18T06:23:58;1.50;48.10
7902;DHT22;3996;49.674;10.716;2023-11-18T06:26:24;1.50;47.80
7902;DHT22;3996;49.674;10.716;2023-11-18T06:28:52;1.50;48.00
7902;DHT22;3996;49.674;10.716;2023-11-18T06:31:21;1.50;48.40
7902;DHT22;3996;49.674;10.716;2023-11-18T06:33:50;1.50;47.80
7902;DHT22;3996;49.674;10.716;2023-11-18T06:38:48;1.50;48.40
7902;DHT22;3996;49.674;10.716;2023-11-18T06:41:18;1.60;48.20
7902;DHT22;3996;49.674;10.716;2023-11-18T06:43:45;1.60;48.60
7902;DHT22;3996;49.674;10.716;2023-11-18T06:46:32;1.50;49.10
7902;DHT22;3996;49.674;10.716;2023-11-18T06:49:00;1.60;49.30
7902;DHT22;3996;49.674;10.716;2023-11-18T06:51:30;1.50;48.40
7902;DHT22;3996;49.674;10.716;2023-11-18T06:53:58;1.50;49.00
7902;DHT22;3996;49.674;10.716;2023-11-18T06:56:24;1.50;49.20
7902;DHT22;3996;49.674;10.716;2023-11-18T06:58:50;1.50;49.60
7902;DHT22;3996;49.674;10.716;2023-11-18T07:01:16;1.60;50.40
7902;DHT22;3996;49.674;10.716;2023-11-18T07:03:46;1.60;50.70
7902;DHT22;3996;49.674;10.716;2023-11-18T07:06:17;1.60;50.60
7902;DHT22;3996;49.674;10.716;2023-11-18T07:08:47;1.60;51.60
7902;DHT22;3996;49.674;10.716;2023-11-18T07:11:14;1.60;51.20
7902;DHT22;3996;49.674;10.716;2023-11-18T07:13:40;1.50;51.80
7902;DHT22;3996;49.674;10.716;2023-11-18T07:16:07;1.50;53.20
7902;DHT22;3996;49.674;10.716;2023-11-18T07:18:38;1.40;53.80
7902;DHT22;3996;49.674;10.716;2023-11-18T07:21:06;1.50;53.50
7902;DHT22;3996;49.674;10.716;2023-11-18T07:23:32;1.70;52.40
7902;DHT22;3996;49.674;10.716;2023-11-18T07:25:58;1.70;51.20
7902;DHT22;3996;49.674;10.716;2023-11-18T07:28:24;1.70;51.40
7902;DHT22;3996;49.674;10.716;2023-11-18T07:30:51;1.80;52.30
7902;DHT22;3996;49.674;10.716;2023-11-18T07:33:17;1.80;51.50
7902;DHT22;3996;49.674;10.716;2023-11-18T07:35:44;1.80;51.50
7902;DHT22;3996;49.674;10.716;2023-11-18T07:38:12;1.70;52.60
7902;DHT22;3996;49.674;10.716;2023-11-18T07:40:38;1.70;53.60
7902;DHT22;3996;49.674;10.716;2023-11-18T07:43:08;1.70;53.10
7902;DHT22;3996;49.674;10.716;2023-11-18T07:45:37;1.80;54.40
7902;DHT22;3996;49.674;10.716;2023-11-18T07:48:11;1.90;54.10
7902;DHT22;3996;49.674;10.716;2023-11-18T07:50:40;1.90;56.80
7902;DHT22;3996;49.674;10.716;2023-11-18T07:53:06;2.00;57.60
7902;DHT22;3996;49.674;10.716;2023-11-18T07:55:33;2.10;57.20
7902;DHT22;3996;49.674;10.716;2023-11-18T07:58:03;2.10;57.90
7902;DHT22;3996;49.674;10.716;2023-11-18T08:00:29;2.10;57.70
7902;DHT22;3996;49.674;10.716;2023-11-18T08:02:58;2.10;56.80
7902;DHT22;3996;49.674;10.716;2023-11-18T08:05:26;2.10;57.80
7902;DHT22;3996;49.674;10.716;2023-11-18T08:07:53;2.10;57.40
7902;DHT22;3996;49.674;10.716;2023-11-18T08:10:19;2.10;58.00
7902;DHT22;3996;49.674;10.716;2023-11-18T08:12:45;2.10;57.60
7902;DHT22;3996;49.674;10.716;2023-11-18T08:15:12;2.10;58.20
7902;DHT22;3996;49.674;10.716;2023-11-18T08:17:39;2.10;58.50
7902;DHT22;3996;49.674;10.716;2023-11-18T08:20:05;2.10;59.20
7902;DHT22;3996;49.674;10.716;2023-11-18T08:22:43;2.20;59.50
7902;DHT22;3996;49.674;10.716;2023-11-18T08:25:12;2.20;60.00
7902;DHT22;3996;49.674;10.716;2023-11-18T08:27:39;2.20;58.70
7902;DHT22;3996;49.674;10.716;2023-11-18T08:30:06;2.20;58.70
7902;DHT22;3996;49.674;10.716;2023-11-18T08:32:39;2.30;58.40
7902;DHT22;3996;49.674;10.716;2023-11-18T08:35:08;2.30;58.00
7902;DHT22;3996;49.674;10.716;2023-11-18T08:37:36;2.30;58.50
7902;DHT22;3996;49.674;10.716;2023-11-18T08:40:03;2.30;58.50
7902;DHT22;3996;49.674;10.716;2023-11-18T08:42:32;2.30;58.80
7902;DHT22;3996;49.674;10.716;2023-11-18T08:44:59;2.40;58.40
7902;DHT22;3996;49.674;10.716;2023-11-18T08:47:28;2.50;57.20
7902;DHT22;3996;49.674;10.716;2023-11-18T08:49:55;2.50;57.00
7902;DHT22;3996;49.674;10.716;2023-11-18T08:52:21;2.50;56.70
7902;DHT22;3996;49.674;10.716;2023-11-18T08:54:46;2.50;56.80
7902;DHT22;3996;49.674;10.716;2023-11-18T08:57:38;2.50;58.60
7902;DHT22;3996;49.674;10.716;2023-11-18T09:00:18;2.60;57.30
7902;DHT22;3996;49.674;10.716;2023-11-18T09:03:02;2.70;58.10
7902;DHT22;3996;49.674;10.716;2023-11-18T09:05:32;2.80;56.30
7902;DHT22;3996;49.674;10.716;2023-11-18T09:07:58;2.80;57.10
7902;DHT22;3996;49.674;10.716;2023-11-18T09:10:26;2.80;57.30
7902;DHT22;3996;49.674;10.716;2023-11-18T09:12:54;2.90;56.90
7902;DHT22;3996;49.674;10.716;2023-11-18T09:15:20;3.00;57.60
7902;DHT22;3996;49.674;10.716;2023-11-18T09:17:49;3.10;57.30
7902;DHT22;3996;49.674;10.716;2023-11-18T09:20:15;3.00;57.00
7902;DHT22;3996;49.674;10.716;2023-11-18T09:22:46;3.10;56.80
7902;DHT22;3996;49.674;10.716;2023-11-18T09:25:11;3.10;55.80
7902;DHT22;3996;49.674;10.716;2023-11-18T09:27:37;3.10;56.00
7902;DHT22;3996;49.674;10.716;2023-11-18T09:30:05;3.10;57.40
7902;DHT22;3996;49.674;10.716;2023-11-18T09:32:40;3.20;56.20
7902;DHT22;3996;49.674;10.716;2023-11-18T09:35:08;3.20;56.20
7902;DHT22;3996;49.674;10.716;2023-11-18T09:37:35;3.30;57.40
7902;DHT22;3996;49.674;10.716;2023-11-18T09:40:02;3.30;57.80
7902;DHT22;3996;49.674;10.716;2023-11-18T09:42:37;3.40;58.20
7902;DHT22;3996;49.674;10.716;2023-11-18T09:45:05;3.40;57.00
7902;DHT22;3996;49.674;10.716;2023-11-18T09:47:43;3.40;56.60
7902;DHT22;3996;49.674;10.716;2023-11-18T09:50:16;3.40;58.40
7902;DHT22;3996;49.674;10.716;2023-11-18T09:52:48;3.40;58.40
7902;DHT22;3996;49.674;10.716;2023-11-18T09:56:15;3.40;58.80
7902;DHT22;3996;49.674;10.716;2023-11-18T09:58:21;3.30;58.70
7902;DHT22;3996;49.674;10.716;2023-11-18T10:00:50;3.40;60.50
7902;DHT22;3996;49.674;10.716;2023-11-18T10:03:16;3.50;60.20
7902;DHT22;3996;49.674;10.716;2023-11-18T10:05:42;3.50;59.40
7902;DHT22;3996;49.674;10.716;2023-11-18T10:08:08;3.50;60.00
7902;DHT22;3996;49.674;10.716;2023-11-18T10:10:35;3.50;61.20
7902;DHT22;3996;49.674;10.716;2023-11-18T10:13:04;3.70;61.10
7902;DHT22;3996;49.674;10.716;2023-11-18T10:15:34;3.50;59.70
7902;DHT22;3996;49.674;10.716;2023-11-18T10:18:02;3.40;60.10
7902;DHT22;3996;49.674;10.716;2023-11-18T10:20:45;3.30;60.40
7902;DHT22;3996;49.674;10.716;2023-11-18T10:23:13;3.40;61.10
7902;DHT22;3996;49.674;10.716;2023-11-18T10:28:31;3.50;63.40
7902;DHT22;3996;49.674;10.716;2023-11-18T10:31:03;3.60;61.60
7902;DHT22;3996;49.674;10.716;2023-11-18T10:33:34;3.50;61.70
7902;DHT22;3996;49.674;10.716;2023-11-18T10:36:02;3.50;62.90
7902;DHT22;3996;49.674;10.716;2023-11-18T10:38:39;3.70;63.50
7902;DHT22;3996;49.674;10.716;2023-11-18T10:41:09;3.50;61.60
7902;DHT22;3996;49.674;10.716;2023-11-18T10:43:35;3.60;63.50
7902;DHT22;3996;49.674;10.716;2023-11-18T10:46:05;3.70;63.80
7902;DHT22;3996;49.674;10.716;2023-11-18T10:48:39;3.60;63.20
7902;DHT22;3996;49.674;10.716;2023-11-18T10:51:07;3.70;63.30
7902;DHT22;3996;49.674;10.716;2023-11-18T10:53:32;3.80;64.70
7902;DHT22;3996;49.674;10.716;2023-11-18T10:55:58;3.80;63.80
7902;DHT22;3996;49.674;10.716;2023-11-18T10:58:25;4.00;64.10
7902;DHT22;3996;49.674;10.716;2023-11-18T11:01:00;4.20;63.50
7902;DHT22;3996;49.674;10.716;2023-11-18T11:03:25;4.30;64.00
7902;DHT22;3996;49.674;10.716;2023-11-18T11:05:52;4.20;62.50
7902;DHT22;3996;49.674;10.716;2023-11-18T11:08:19;4.20;61.80
7902;DHT22;3996;49.674;10.716;2023-11-18T11:10:46;4.30;61.90
7902;DHT22;3996;49.674;10.716;2023-11-18T11:13:14;4.30;61.90
7902;DHT22;3996;49.674;10.716;2023-11-18T11:15:43;4.40;62.00
7902;DHT22;3996;49.674;10.716;2023-11-18T11:18:12;4.40;61.90
7902;DHT22;3996;49.674;10.716;2023-11-18T11:21:03;4.40;63.30
7902;DHT22;3996;49.674;10.716;2023-11-18T11:26:23;4.50;62.20
7902;DHT22;3996;49.674;10.716;2023-11-18T11:29:03;4.50;62.40
7902;DHT22;3996;49.674;10.716;2023-11-18T11:31:39;4.60;62.10
7902;DHT22;3996;49.674;10.716;2023-11-18T11:34:17;4.60;62.10
7902;DHT22;3996;49.674;10.716;2023-11-18T11:36:49;4.70;62.20
7902;DHT22;3996;49.674;10.716;2023-11-18T11:39:17;4.70;62.20
7902;DHT22;3996;49.674;10.716;2023-11-18T11:41:50;4.70;61.40
7902;DHT22;3996;49.674;10.716;2023-11-18T11:44:16;4.80;62.30
7902;DHT22;3996;49.674;10.716;2023-11-18T11:46:48;4.90;62.30
7902;DHT22;3996;49.674;10.716;2023-11-18T11:49:22;5.00;61.40
7902;DHT22;3996;49.674;10.716;2023-11-18T11:52:15;5.10;62.50
7902;DHT22;3996;49.674;10.716;2023-11-18T11:54:55;5.00;60.40
7902;DHT22;3996;49.674;10.716;2023-11-18T11:57:22;5.10;62.30
7902;DHT22;3996;49.674;10.716;2023-11-18T12:02:20;5.10;61.00
7902;DHT22;3996;49.674;10.716;2023-11-18T12:04:50;5.10;59.50
7902;DHT22;3996;49.674;10.716;2023-11-18T12:07:27;5.10;60.40
7902;DHT22;3996;49.674;10.716;2023-11-18T12:09:59;5.10;59.90
7902;DHT22;3996;49.674;10.716;2023-11-18T12:12:27;5.10;61.70
7902;DHT22;3996;49.674;10.716;2023-11-18T12:17:22;5.30;62.10
7902;DHT22;3996;49.674;10.716;2023-11-18T12:19:48;5.30;62.70
7902;DHT22;3996;49.674;10.716;2023-11-18T12:22:24;5.30;62.50
7902;DHT22;3996;49.674;10.716;2023-11-18T12:27:43;5.50;63.40
7902;DHT22;3996;49.674;10.716;2023-11-18T12:32:59;5.60;61.20
7902;DHT22;3996;49.674;10.716;2023-11-18T12:49:37;5.90;61.60
7902;DHT22;3996;49.674;10.716;2023-11-18T12:52:08;6.00;60.50
7902;DHT22;3996;49.674;10.716;2023-11-18T12:54:37;6.00;60.50
7902;DHT22;3996;49.674;10.716;2023-11-18T12:57:03;5.90;60.20
7902;DHT22;3996;49.674;10.716;2023-11-18T12:59:33;6.00;61.00
7902;DHT22;3996;49.674;10.716;2023-11-18T13:01:59;6.00;61.50
7902;DHT22;3996;49.674;10.716;2023-11-18T13:04:30;6.00;62.10
7902;DHT22;3996;49.674;10.716;2023-11-18T13:06:56;6.10;60.90
7902;DHT22;3996;49.674;10.716;2023-11-18T13:09:22;6.10;61.40
7902;DHT22;3996;49.674;10.716;2023-11-18T13:11:55;6.10;60.80
7902;DHT22;3996;49.674;10.716;2023-11-18T13:14:26;6.10;60.90
7902;DHT22;3996;49.674;10.716;2023-11-18T13:16:55;6.10;59.60
7902;DHT22;3996;49.674;10.716;2023-11-18T13:19:28;6.00;61.10
7902;DHT22;3996;49.674;10.716;2023-11-18T13:22:13;6.10;61.50
7902;DHT22;3996;49.674;10.716;2023-11-18T13:24:40;6.10;61.30
7902;DHT22;3996;49.674;10.716;2023-11-18T13:27:07;6.20;62.80
7902;DHT22;3996;49.674;10.716;2023-11-18T13:29:35;6.10;61.80
7902;DHT22;3996;49.674;10.716;2023-11-18T13:32:01;6.10;62.00
7902;DHT22;3996;49.674;10.716;2023-11-18T13:34:30;6.20;63.40
7902;DHT22;3996;49.674;10.716;2023-11-18T13:36:58;6.20;63.00
7902;DHT22;3996;49.674;10.716;2023-11-18T13:39:24;6.20;62.10
7902;DHT22;3996;49.674;10.716;2023-11-18T13:41:53;6.20;62.40
7902;DHT22;3996;49.674;10.716;2023-11-18T13:44:34;6.20;61.90
7902;DHT22;3996;49.674;10.716;2023-11-18T13:47:00;6.20;62.20
7902;DHT22;3996;49.674;10.716;2023-11-18T13:49:30;6.20;63.40
7902;DHT22;3996;49.674;10.716;2023-11-18T13:51:56;6.20;62.80
7902;DHT22;3996;49.674;10.716;2023-11-18T13:54:22;6.20;62.10
7902;DHT22;3996;49.674;10.716;2023-11-18T13:56:49;6.20;62.80
7902;DHT22;3996;49.674;10.716;2023-11-18T13:59:15;6.30;63.10
7902;DHT22;3996;49.674;10.716;2023-11-18T14:01:41;6.30;63.00
7902;DHT22;3996;49.674;10.716;2023-11-18T14:04:07;6.30;62.10
7902;DHT22;3996;49.674;10.716;2023-11-18T14:06:35;6.30;63.50
7902;DHT22;3996;49.674;10.716;2023-11-18T14:09:02;6.30;63.50
7902;DHT22;3996;49.674;10.716;2023-11-18T14:11:30;6.30;63.80
7902;DHT22;3996;49.674;10.716;2023-11-18T14:13:55;6.30;64.80
7902;DHT22;3996;49.674;10.716;2023-11-18T14:16:21;6.30;65.00
7902;DHT22;3996;49.674;10.716;2023-11-18T14:18:49;6.30;64.20
7902;DHT22;3996;49.674;10.716;2023-11-18T14:21:15;6.30;64.70
7902;DHT22;3996;49.674;10.716;2023-11-18T14:23:40;6.30;65.00
7902;DHT22;3996;49.674;10.716;2023-11-18T14:26:06;6.40;65.00
7902;DHT22;3996;49.674;10.716;2023-11-18T14:28:36;6.40;65.40
7902;DHT22;3996;49.674;10.716;2023-11-18T14:31:02;6.40;65.70
7902;DHT22;3996;49.674;10.716;2023-11-18T14:33:30;6.30;66.10
7902;DHT22;3996;49.674;10.716;2023-11-18T14:36:01;6.30;66.30
7902;DHT22;3996;49.674;10.716;2023-11-18T14:38:27;6.30;66.60
7902;DHT22;3996;49.674;10.716;2023-11-18T14:40:53;6.30;66.70
7902;DHT22;3996;49.674;10.716;2023-11-18T14:43:19;6.30;66.50
7902;DHT22;3996;49.674;10.716;2023-11-18T14:45:45;6.30;67.00
7902;DHT22;3996;49.674;10.716;2023-11-18T14:48:10;6.30;66.90
7902;DHT22;3996;49.674;10.716;2023-11-18T14:50:36;6.30;66.80
7902;DHT22;3996;49.674;10.716;2023-11-18T14:53:03;6.30;66.80
7902;DHT22;3996;49.674;10.716;2023-11-18T14:55:29;6.30;67.50
7902;DHT22;3996;49.674;10.716;2023-11-18T14:57:55;6.40;67.20
7902;DHT22;3996;49.674;10.716;2023-11-18T15:00:22;6.30;67.40
7902;DHT22;3996;49.674;10.716;2023-11-18T15:02:50;6.30;67.50
7902;DHT22;3996;49.674;10.716;2023-11-18T15:05:17;6.30;68.00
7902;DHT22;3996;49.674;10.716;2023-11-18T15:07:56;6.30;67.80
7902;DHT22;3996;49.674;10.716;2023-11-18T15:10:23;6.30;67.70
7902;DHT22;3996;49.674;10.716;2023-11-18T15:12:50;6.30;67.40
7902;DHT22;3996;49.674;10.716;2023-11-18T15:15:27;6.30;67.50
7902;DHT22;3996;49.674;10.716;2023-11-18T15:18:03;6.30;67.20
7902;DHT22;3996;49.674;10.716;2023-11-18T15:20:30;6.30;67.40
7902;DHT22;3996;49.674;10.716;2023-11-18T15:22:56;6.20;67.30
7902;DHT22;3996;49.674;10.716;2023-11-18T15:25:25;6.20;67.40
7902;DHT22;3996;49.674;10.716;2023-11-18T15:27:50;6.20;67.40
7902;DHT22;3996;49.674;10.716;2023-11-18T15:30:16;6.20;67.60
7902;DHT22;3996;49.674;10.716;2023-11-18T15:32:44;6.20;68.30
7902;DHT22;3996;49.674;10.716;2023-11-18T15:35:11;6.20;67.60
7902;DHT22;3996;49.674;10.716;2023-11-18T15:37:41;6.20;67.30
7902;DHT22;3996;49.674;10.716;2023-11-18T15:40:08;6.20;67.40
7902;DHT22;3996;49.674;10.716;2023-11-18T15:42:42;6.20;67.60
7902;DHT22;3996;49.674;10.716;2023-11-18T15:45:09;6.20;68.20
7902;DHT22;3996;49.674;10.716;2023-11-18T15:47:40;6.20;68.10
7902;DHT22;3996;49.674;10.716;2023-11-18T15:50:08;6.20;67.80
7902;DHT22;3996;49.674;10.716;2023-11-18T15:52:38;6.20;67.30
7902;DHT22;3996;49.674;10.716;2023-11-18T15:55:04;6.20;68.10
7902;DHT22;3996;49.674;10.716;2023-11-18T15:57:39;6.20;67.40
7902;DHT22;3996;49.674;10.716;2023-11-18T16:00:05;6.30;67.20
7902;DHT22;3996;49.674;10.716;2023-11-18T16:02:34;6.20;67.30
7902;DHT22;3996;49.674;10.716;2023-11-18T16:05:00;6.30;67.50
7902;DHT22;3996;49.674;10.716;2023-11-18T16:07:25;6.30;67.20
7902;DHT22;3996;49.674;10.716;2023-11-18T16:09:51;6.30;67.20
7902;DHT22;3996;49.674;10.716;2023-11-18T16:12:17;6.30;67.20
7902;DHT22;3996;49.674;10.716;2023-11-18T16:14:42;6.30;67.10
7902;DHT22;3996;49.674;10.716;2023-11-18T16:17:08;6.30;66.90
7902;DHT22;3996;49.674;10.716;2023-11-18T16:19:34;6.20;66.40
7902;DHT22;3996;49.674;10.716;2023-11-18T16:22:00;6.20;66.90
7902;DHT22;3996;49.674;10.716;2023-11-18T16:24:26;6.20;67.30
7902;DHT22;3996;49.674;10.716;2023-11-18T16:26:51;6.20;67.90
7902;DHT22;3996;49.674;10.716;2023-11-18T16:29:17;6.20;67.60
7902;DHT22;3996;49.674;10.716;2023-11-18T16:31:44;6.20;67.80
7902;DHT22;3996;49.674;10.716;2023-11-18T16:34:09;6.30;68.00
7902;DHT22;3996;49.674;10.716;2023-11-18T16:36:35;6.20;67.80
7902;DHT22;3996;49.674;10.716;2023-11-18T16:39:05;6.20;68.40
7902;DHT22;3996;49.674;10.716;2023-11-18T16:41:32;6.20;68.30